Innis, Louisiana
Current Conditions -  °F | °C
As of 10:55 AM on Monday 22 Dec 2014 (Local Time) from KHZR Reporting Station
Haze Haze  
Wind Chill: 62°   Ceiling: 200
Heat Index: 62°   Visibility: 2mi
Dew Point: 61°   Wind: 7mph
Humidity: 97%   Direction: 150°SSE
Pressure: 29.78"   Gusts: NA
Location:  30.88°N, 91.68°W
Report Text: KHZR 221655Z AUTO 15006KT 2SM BR OVC002 17/16 A2978 RMK AO2 T01650161
Loading
Personal Weather Stations






























Interactive Weather Map New forecast layout! Learn more

10-Day Weather Forecast

Advertisements
Track Severe Weather on mobile